Time;durP1;ratioP1;P1;durP2;ratioP2;P2;SDS_P1;SDS_P2;PMS_P1;PMS_P2;Temp;Humidity;BMP_temperature;BMP_pressure;BME280_temperature;BME280_humidity;BME280_pressure;Samples;Min_cycle;Max_cycle;Signal;HPM_P1;HPM_P2
2021/05/08 00:00:37;;;;;;;2.70;1.27;;;17.50;37.40;;;;;;5096642;28;20028;-67
2021/05/08 00:03:04;;;;;;;3.95;1.33;;;17.50;37.50;;;;;;5096676;28;20060;-67
2021/05/08 00:05:29;;;;;;;3.13;1.40;;;17.50;37.40;;;;;;5096728;28;20028;-69
2021/05/08 00:07:55;;;;;;;2.97;1.30;;;17.50;37.40;;;;;;5096660;28;20024;-68
2021/05/08 00:10:21;;;;;;;2.63;1.10;;;17.50;37.40;;;;;;5096337;28;20038;-69
2021/05/08 00:12:47;;;;;;;3.38;1.30;;;17.50;37.40;;;;;;5096205;28;20116;-69
2021/05/08 00:15:15;;;;;;;3.85;1.73;;;17.50;37.50;;;;;;5095989;28;20043;-69
2021/05/08 00:17:40;;;;;;;3.83;1.42;;;17.50;37.40;;;;;;5095999;28;20444;-68
2021/05/08 00:20:11;;;;;;;3.67;1.42;;;17.50;37.40;;;;;;5096345;28;20028;-69
2021/05/08 00:22:37;;;;;;;3.17;1.33;;;17.50;37.40;;;;;;5096328;28;20380;-69
2021/05/08 00:25:05;;;;;;;3.53;1.65;;;17.50;37.40;;;;;;5096075;28;20040;-68
2021/05/08 00:27:30;;;;;;;3.25;1.40;;;17.50;37.50;;;;;;5095947;28;20127;-68
2021/05/08 00:29:56;;;;;;;2.80;1.30;;;17.50;37.40;;;;;;5096003;28;20051;-68
2021/05/08 00:32:21;;;;;;;3.15;1.35;;;17.50;37.40;;;;;;5096182;28;20380;-69
2021/05/08 00:34:47;;;;;;;2.88;1.42;;;17.50;37.40;;;;;;5095937;28;20024;-69
2021/05/08 00:37:12;;;;;;;4.13;1.60;;;17.50;37.50;;;;;;5095593;28;20036;-68
2021/05/08 00:39:38;;;;;;;3.05;1.55;;;17.50;37.40;;;;;;5095755;28;20028;-69
2021/05/08 00:42:04;;;;;;;3.85;1.50;;;17.50;37.40;;;;;;5095877;28;20051;-68
2021/05/08 00:44:29;;;;;;;5.10;1.92;;;17.50;37.40;;;;;;5093261;28;20052;-68
2021/05/08 00:46:55;;;;;;;3.53;1.35;;;17.50;37.40;;;;;;5095564;28;20028;-68
2021/05/08 00:49:21;;;;;;;5.07;1.60;;;17.50;37.40;;;;;;5095962;28;20024;-69
2021/05/08 00:51:48;;;;;;;3.85;1.67;;;17.50;37.40;;;;;;5095696;28;20376;-68
2021/05/08 00:54:14;;;;;;;3.63;1.50;;;17.50;37.40;;;;;;5095425;28;20024;-69
2021/05/08 00:56:40;;;;;;;3.38;1.50;;;17.50;37.40;;;;;;5095797;28;20068;-69
2021/05/08 00:59:06;;;;;;;5.03;2.00;;;17.50;37.40;;;;;;5095574;28;20020;-68
2021/05/08 01:01:32;;;;;;;4.45;2.13;;;17.50;37.40;;;;;;5095172;28;20032;-68
2021/05/08 01:03:58;;;;;;;5.68;1.65;;;17.50;37.40;;;;;;5095359;28;20032;-69
2021/05/08 01:06:23;;;;;;;3.58;1.65;;;17.50;37.40;;;;;;5095066;28;20332;-67
2021/05/08 01:08:49;;;;;;;5.03;1.95;;;17.50;37.40;;;;;;5095389;28;20111;-67
2021/05/08 01:11:15;;;;;;;4.88;2.10;;;17.50;37.40;;;;;;5094977;28;20107;-67
2021/05/08 01:13:41;;;;;;;3.92;1.73;;;17.50;37.40;;;;;;5095024;28;20081;-67
2021/05/08 01:16:06;;;;;;;4.43;1.77;;;17.50;37.30;;;;;;5095137;28;20031;-67
2021/05/08 01:18:32;;;;;;;4.05;1.73;;;17.50;37.40;;;;;;5095868;28;20032;-68
2021/05/08 01:20:59;;;;;;;4.07;1.75;;;17.50;37.40;;;;;;5098309;28;20028;-67
2021/05/08 01:23:25;;;;;;;4.22;1.60;;;17.40;37.40;;;;;;5095319;28;20119;-67
2021/05/08 01:25:50;;;;;;;4.38;2.33;;;17.50;37.40;;;;;;5095181;28;20504;-67
2021/05/08 01:28:16;;;;;;;3.22;1.60;;;17.50;37.40;;;;;;5095195;28;20050;-66
2021/05/08 01:30:42;;;;;;;4.50;1.90;;;17.50;37.40;;;;;;5094902;28;20039;-68
2021/05/08 01:33:07;;;;;;;5.30;2.08;;;17.40;37.40;;;;;;5094782;28;20024;-68
2021/05/08 01:35:34;;;;;;;3.83;1.73;;;17.50;37.40;;;;;;5094958;28;20039;-68
2021/05/08 01:38:00;;;;;;;3.83;2.08;;;17.50;37.30;;;;;;5093380;28;20031;-68
2021/05/08 01:40:40;;;;;;;4.38;1.90;;;17.50;37.30;;;;;;5094521;28;20352;-67
2021/05/08 01:43:05;;;;;;;4.63;1.88;;;17.50;37.40;;;;;;5094590;28;20020;-68
2021/05/08 01:45:31;;;;;;;4.25;1.70;;;17.40;37.30;;;;;;5094456;28;20099;-68
2021/05/08 01:47:59;;;;;;;4.57;2.00;;;17.50;37.30;;;;;;5094328;28;20027;-68
2021/05/08 01:50:26;;;;;;;4.07;1.90;;;17.50;37.30;;;;;;5094584;28;20083;-68
2021/05/08 01:52:53;;;;;;;3.58;1.98;;;17.50;37.30;;;;;;5094826;28;20024;-68
2021/05/08 01:55:21;;;;;;;4.22;1.55;;;17.50;37.30;;;;;;5095099;28;20024;-68
2021/05/08 01:57:52;;;;;;;4.90;2.65;;;17.50;37.30;;;;;;5099182;28;20024;-68
2021/05/08 02:00:30;;;;;;;5.00;1.85;;;17.50;37.30;;;;;;5094722;28;20024;-68
2021/05/08 02:02:56;;;;;;;3.92;1.83;;;17.50;37.30;;;;;;5094313;28;20016;-68
2021/05/08 02:05:26;;;;;;;4.43;2.00;;;17.40;37.30;;;;;;5094033;28;20024;-67
2021/05/08 02:07:51;;;;;;;5.28;1.90;;;17.40;37.30;;;;;;5093934;28;20387;-68
2021/05/08 02:10:17;;;;;;;4.60;2.00;;;17.40;37.30;;;;;;5094234;28;20107;-68
2021/05/08 02:12:43;;;;;;;3.53;1.65;;;17.40;37.30;;;;;;5094104;28;20138;-68
2021/05/08 02:15:14;;;;;;;4.60;1.77;;;17.40;37.30;;;;;;5094073;28;20084;-68
2021/05/08 02:17:40;;;;;;;5.43;2.00;;;17.40;37.30;;;;;;5093815;28;20012;-68
2021/05/08 02:20:14;;;;;;;5.53;2.17;;;17.40;37.30;;;;;;5093394;28;20024;-69
2021/05/08 02:22:41;;;;;;;;;;;17.40;37.30;;;;;;5094435;28;20067;-68
2021/05/08 02:25:09;;;;;;;4.50;2.10;;;17.40;37.30;;;;;;5093296;28;19916;-68
2021/05/08 02:27:35;;;;;;;4.38;2.13;;;17.40;37.20;;;;;;5093574;28;20026;-68
2021/05/08 02:30:02;;;;;;;4.78;1.85;;;17.40;37.20;;;;;;5093546;28;20413;-68
2021/05/08 02:32:28;;;;;;;5.13;2.13;;;17.40;37.30;;;;;;5093584;28;20051;-68
2021/05/08 02:34:53;;;;;;;5.38;2.08;;;17.40;37.20;;;;;;5093449;28;20064;-68
2021/05/08 02:37:19;;;;;;;4.20;1.67;;;17.40;37.20;;;;;;5093677;28;20070;-68
2021/05/08 02:39:45;;;;;;;5.10;2.20;;;17.40;37.20;;;;;;5093771;28;20024;-68
2021/05/08 02:42:10;;;;;;;4.78;1.90;;;17.40;37.20;;;;;;5093864;28;20028;-68
2021/05/08 02:44:36;;;;;;;4.10;2.10;;;17.40;37.20;;;;;;5093483;28;20410;-68
2021/05/08 02:47:01;;;;;;;4.60;2.00;;;17.40;37.20;;;;;;5093810;28;20529;-68
2021/05/08 02:49:27;;;;;;;5.15;2.20;;;17.50;37.20;;;;;;5094210;28;20544;-67
2021/05/08 02:51:52;;;;;;;5.82;2.13;;;17.40;37.20;;;;;;5093811;28;20031;-69
2021/05/08 02:54:18;;;;;;;4.22;2.10;;;17.40;37.20;;;;;;5093060;28;20024;-69
2021/05/08 02:56:43;;;;;;;4.47;1.80;;;17.40;37.20;;;;;;5094668;28;20174;-69
2021/05/08 02:59:09;;;;;;;5.93;1.95;;;17.40;37.20;;;;;;5101382;28;20048;-71
2021/05/08 03:01:34;;;;;;;4.07;1.65;;;17.40;37.20;;;;;;5102558;28;20020;-69
2021/05/08 03:04:00;;;;;;;4.68;2.05;;;17.40;37.20;;;;;;5103839;28;20050;-69
2021/05/08 03:06:25;;;;;;;4.30;1.90;;;17.40;37.20;;;;;;5103690;28;20024;-72
2021/05/08 03:08:51;;;;;;;4.30;1.77;;;17.40;37.20;;;;;;5106064;28;20418;-67
2021/05/08 03:11:16;;;;;;;4.57;2.00;;;17.40;37.20;;;;;;5107493;28;20024;-69
2021/05/08 03:13:42;;;;;;;4.63;2.08;;;17.40;37.10;;;;;;5107338;28;20498;-69
2021/05/08 03:16:08;;;;;;;4.93;1.85;;;17.40;37.10;;;;;;5099234;28;20066;-68
2021/05/08 03:18:33;;;;;;;3.63;1.55;;;17.40;37.10;;;;;;5097413;28;20028;-69
2021/05/08 03:20:59;;;;;;;4.90;2.25;;;17.40;37.10;;;;;;5097069;28;20024;-69
2021/05/08 03:23:25;;;;;;;3.33;1.75;;;17.40;37.10;;;;;;5096837;28;20128;-69
2021/05/08 03:25:51;;;;;;;4.03;1.95;;;17.40;37.10;;;;;;5097110;28;20388;-69
2021/05/08 03:28:16;;;;;;;4.60;2.20;;;17.40;37.10;;;;;;5097228;28;20028;-68
2021/05/08 03:30:42;;;;;;;3.85;1.95;;;17.30;37.10;;;;;;5097045;28;20103;-69
2021/05/08 03:33:07;;;;;;;5.22;2.60;;;17.30;37.10;;;;;;5096826;28;20026;-69
2021/05/08 03:35:33;;;;;;;3.88;1.80;;;17.40;37.10;;;;;;5096846;28;20058;-69
2021/05/08 03:37:59;;;;;;;4.57;1.92;;;17.40;37.10;;;;;;5096989;28;20112;-68
2021/05/08 03:40:25;;;;;;;3.83;1.92;;;17.30;37.10;;;;;;5095694;28;20107;-69
2021/05/08 03:42:50;;;;;;;3.97;1.92;;;17.40;37.10;;;;;;5096987;28;20028;-68
2021/05/08 03:45:16;;;;;;;4.63;1.80;;;17.40;37.10;;;;;;5096838;28;20103;-67
2021/05/08 03:47:41;;;;;;;4.22;2.15;;;17.40;37.10;;;;;;5096437;28;20090;-66
2021/05/08 03:50:08;;;;;;;3.95;1.80;;;17.40;37.10;;;;;;5096393;28;20024;-67
2021/05/08 03:52:33;;;;;;;5.75;2.67;;;17.40;37.10;;;;;;5096561;28;20073;-67
2021/05/08 03:55:00;;;;;;;2.63;1.40;;;17.40;37.10;;;;;;5096656;28;20032;-67
2021/05/08 03:57:25;;;;;;;3.47;1.77;;;17.40;37.10;;;;;;5096238;28;20032;-68
2021/05/08 03:59:51;;;;;;;4.22;2.10;;;17.30;37.10;;;;;;5096360;28;20479;-67
2021/05/08 04:02:17;;;;;;;4.28;2.10;;;17.40;37.00;;;;;;5096678;28;20054;-67
2021/05/08 04:04:42;;;;;;;5.07;2.60;;;17.40;37.10;;;;;;5096703;28;20100;-67
2021/05/08 04:07:08;;;;;;;5.20;2.17;;;17.40;37.10;;;;;;5096604;28;20020;-67
2021/05/08 04:09:33;;;;;;;6.50;2.00;;;17.40;37.10;;;;;;5096570;28;20020;-67
2021/05/08 04:11:59;;;;;;;4.78;2.00;;;17.40;37.10;;;;;;5096211;28;20024;-67
2021/05/08 04:14:25;;;;;;;4.55;2.25;;;17.40;37.10;;;;;;5094597;28;20494;-67
2021/05/08 04:16:50;;;;;;;5.57;2.00;;;17.40;37.00;;;;;;5096505;28;20039;-67
2021/05/08 04:19:16;;;;;;;5.03;1.98;;;17.40;37.10;;;;;;5097823;28;20016;-67
2021/05/08 04:21:41;;;;;;;4.50;1.80;;;17.40;37.10;;;;;;5100560;28;20024;-67
2021/05/08 04:24:07;;;;;;;3.55;1.80;;;17.40;37.00;;;;;;5096191;28;20173;-67
2021/05/08 04:26:33;;;;;;;4.43;2.08;;;17.40;37.00;;;;;;5096198;28;20031;-67
2021/05/08 04:28:58;;;;;;;4.43;2.08;;;17.40;37.00;;;;;;5095892;28;20024;-66
2021/05/08 04:31:24;;;;;;;4.68;2.20;;;17.40;37.00;;;;;;5095881;28;20115;-67
2021/05/08 04:33:50;;;;;;;4.28;1.92;;;17.40;37.00;;;;;;5095608;28;20434;-67
2021/05/08 04:36:15;;;;;;;5.15;2.33;;;17.40;37.00;;;;;;5095708;28;20047;-67
2021/05/08 04:38:41;;;;;;;3.88;1.92;;;17.40;37.00;;;;;;5095767;28;20051;-67
2021/05/08 04:41:07;;;;;;;3.75;1.75;;;17.40;37.00;;;;;;5095686;28;20032;-67
2021/05/08 04:43:33;;;;;;;5.53;1.77;;;17.40;37.00;;;;;;5095627;28;20020;-66
2021/05/08 04:45:59;;;;;;;6.18;2.15;;;17.40;37.00;;;;;;5095730;28;20101;-67
2021/05/08 04:48:26;;;;;;;6.15;2.03;;;17.40;37.00;;;;;;5095770;28;20114;-67
2021/05/08 04:50:53;;;;;;;4.82;1.85;;;17.40;37.00;;;;;;5095664;28;20036;-67
2021/05/08 04:53:18;;;;;;;4.95;2.28;;;17.40;37.00;;;;;;5095223;28;20031;-67
2021/05/08 04:55:46;;;;;;;3.17;1.63;;;17.40;37.00;;;;;;5094074;28;20499;-67
2021/05/08 04:58:12;;;;;;;5.78;1.90;;;17.40;37.00;;;;;;5095350;28;20034;-66
2021/05/08 05:00:38;;;;;;;3.90;1.73;;;17.40;37.00;;;;;;5095343;28;20031;-67
2021/05/08 05:03:04;;;;;;;4.82;1.88;;;17.40;37.00;;;;;;5094360;28;20020;-67
2021/05/08 05:05:29;;;;;;;3.80;1.67;;;17.40;37.00;;;;;;5095265;28;20076;-67
2021/05/08 05:07:55;;;;;;;4.10;1.45;;;17.40;37.00;;;;;;5095525;28;20028;-67
2021/05/08 05:10:20;;;;;;;5.93;1.85;;;17.40;37.00;;;;;;5095287;28;20497;-67
2021/05/08 05:12:47;;;;;;;4.35;2.05;;;17.40;37.00;;;;;;5094771;28;20077;-68
2021/05/08 05:15:16;;;;;;;5.20;2.35;;;17.40;37.00;;;;;;5099018;28;20016;-67
2021/05/08 05:17:42;;;;;;;5.47;1.88;;;17.40;37.00;;;;;;5096849;28;20031;-67
2021/05/08 05:20:08;;;;;;;4.13;1.80;;;17.40;37.00;;;;;;5095290;28;20017;-67
2021/05/08 05:22:34;;;;;;;3.95;1.85;;;17.30;37.00;;;;;;5094697;28;20055;-67
2021/05/08 05:25:00;;;;;;;4.07;1.80;;;17.30;37.00;;;;;;5094509;28;20504;-67
2021/05/08 05:27:25;;;;;;;3.85;1.90;;;17.40;37.00;;;;;;5094860;28;20077;-67
2021/05/08 05:29:51;;;;;;;5.07;2.30;;;17.30;37.00;;;;;;5094387;28;20356;-67
2021/05/08 05:32:16;;;;;;;4.03;1.90;;;17.30;37.00;;;;;;5094779;28;20051;-67
2021/05/08 05:34:42;;;;;;;4.07;1.90;;;17.40;37.00;;;;;;5094711;28;20028;-67
2021/05/08 05:37:08;;;;;;;4.50;1.95;;;17.30;37.00;;;;;;5094590;28;20493;-67
2021/05/08 05:39:34;;;;;;;4.38;2.03;;;17.40;37.00;;;;;;5094663;28;20552;-67
2021/05/08 05:41:59;;;;;;;5.70;1.90;;;17.30;37.00;;;;;;5094525;28;20129;-67
2021/05/08 05:44:25;;;;;;;5.03;2.03;;;17.40;37.00;;;;;;5094567;28;20055;-68
2021/05/08 05:46:50;;;;;;;4.63;1.77;;;17.40;36.90;;;;;;5094523;28;20028;-67
2021/05/08 05:49:16;;;;;;;4.32;1.73;;;17.40;36.90;;;;;;5092947;28;20027;-67
2021/05/08 05:51:41;;;;;;;5.00;1.80;;;17.40;36.90;;;;;;5094329;28;20069;-67
2021/05/08 05:54:07;;;;;;;4.28;1.80;;;17.40;36.90;;;;;;5100027;28;20490;-68
2021/05/08 05:56:32;;;;;;;3.60;1.73;;;17.40;36.90;;;;;;5094809;28;20059;-68
2021/05/08 05:58:58;;;;;;;3.33;1.70;;;17.40;36.90;;;;;;5094290;28;20024;-67
2021/05/08 06:01:24;;;;;;;4.05;1.90;;;17.40;36.90;;;;;;5094294;28;20031;-67
2021/05/08 06:03:50;;;;;;;5.88;2.08;;;17.40;36.90;;;;;;5094437;28;20039;-67
2021/05/08 06:06:16;;;;;;;3.58;1.70;;;17.40;37.00;;;;;;5094178;28;20085;-68
2021/05/08 06:08:42;;;;;;;5.85;1.92;;;17.40;37.00;;;;;;5094060;28;20091;-67
2021/05/08 06:11:07;;;;;;;6.85;2.10;;;17.40;37.00;;;;;;5094357;28;20040;-67
2021/05/08 06:13:33;;;;;;;3.42;1.67;;;17.40;36.90;;;;;;5094017;28;20020;-67
2021/05/08 06:16:00;;;;;;;4.57;1.77;;;17.40;37.00;;;;;;5093777;28;20043;-66
2021/05/08 06:18:26;;;;;;;3.40;1.70;;;17.50;36.90;;;;;;5093693;28;20023;-67
2021/05/08 06:20:51;;;;;;;3.60;1.55;;;17.70;36.50;;;;;;5093443;28;20028;-67
2021/05/08 06:23:18;;;;;;;4.40;1.80;;;17.80;36.30;;;;;;5093403;28;20028;-68
2021/05/08 06:25:43;;;;;;;3.65;1.58;;;17.80;36.10;;;;;;5093441;28;20038;-67
2021/05/08 06:28:09;;;;;;;4.25;1.85;;;17.70;36.30;;;;;;5093714;28;20041;-67
2021/05/08 06:30:34;;;;;;;4.93;2.10;;;17.70;36.40;;;;;;5094000;28;20020;-67
2021/05/08 06:33:00;;;;;;;4.35;2.00;;;17.60;36.50;;;;;;5093676;28;20020;-67
2021/05/08 06:35:25;;;;;;;5.10;1.77;;;17.60;36.60;;;;;;5093812;28;20032;-69
2021/05/08 06:37:51;;;;;;;4.63;1.83;;;17.60;36.60;;;;;;5093931;28;20100;-69
2021/05/08 06:40:17;;;;;;;4.25;1.60;;;17.50;36.60;;;;;;5093647;28;20043;-67
2021/05/08 06:42:43;;;;;;;2.75;1.33;;;17.50;36.60;;;;;;5092566;28;20020;-69
2021/05/08 06:45:09;;;;;;;4.07;1.73;;;17.50;36.60;;;;;;5093423;28;20468;-68
2021/05/08 06:47:35;;;;;;;3.35;1.67;;;17.50;36.70;;;;;;5093588;28;20028;-68
2021/05/08 06:50:01;;;;;;;4.25;1.67;;;17.50;36.70;;;;;;5093584;28;20555;-66
2021/05/08 06:52:26;;;;;;;3.70;1.63;;;17.50;36.70;;;;;;5093367;28;20047;-69
2021/05/08 06:54:52;;;;;;;4.68;2.00;;;17.50;36.70;;;;;;5093194;28;20032;-69
2021/05/08 06:57:18;;;;;;;3.72;1.73;;;17.50;36.70;;;;;;5093453;28;20038;-68
2021/05/08 06:59:43;;;;;;;4.50;1.80;;;17.50;36.70;;;;;;5093670;28;20476;-68
2021/05/08 07:02:09;;;;;;;5.13;1.80;;;17.60;36.70;;;;;;5093348;28;20093;-68
2021/05/08 07:04:34;;;;;;;4.25;1.65;;;17.50;36.70;;;;;;5093607;28;20018;-68
2021/05/08 07:07:00;;;;;;;4.45;1.83;;;17.50;36.70;;;;;;5093012;28;20024;-69
2021/05/08 07:09:26;;;;;;;5.30;1.98;;;17.50;36.80;;;;;;5093270;28;20020;-68
2021/05/08 07:11:52;;;;;;;3.95;1.65;;;17.50;36.70;;;;;;5093392;28;20115;-68
2021/05/08 07:14:18;;;;;;;3.83;1.55;;;17.50;36.80;;;;;;5092907;28;20527;-68
2021/05/08 07:16:43;;;;;;;4.82;1.45;;;17.60;36.80;;;;;;5093053;28;20200;-68
2021/05/08 07:19:10;;;;;;;3.90;1.67;;;17.50;36.80;;;;;;5093832;28;20051;-68
2021/05/08 07:21:36;;;;;;;3.35;1.60;;;17.50;36.80;;;;;;5095485;28;20071;-68
2021/05/08 07:24:01;;;;;;;3.90;1.67;;;17.50;36.70;;;;;;5093290;28;20048;-68
2021/05/08 07:26:27;;;;;;;5.25;1.92;;;17.50;36.80;;;;;;5093164;28;20496;-68
2021/05/08 07:28:52;;;;;;;3.38;1.50;;;17.60;36.80;;;;;;5092998;28;20066;-68
2021/05/08 07:31:18;;;;;;;3.10;1.50;;;17.60;36.70;;;;;;5093347;28;20027;-68
2021/05/08 07:33:44;;;;;;;4.07;1.63;;;17.60;36.80;;;;;;5093045;28;20467;-68
2021/05/08 07:36:09;;;;;;;4.40;1.75;;;17.60;36.80;;;;;;5093272;28;20036;-69
2021/05/08 07:38:35;;;;;;;4.38;1.75;;;17.50;36.80;;;;;;5092876;28;20021;-68
2021/05/08 07:41:00;;;;;;;3.33;1.42;;;17.50;36.80;;;;;;5092776;28;20031;-68
2021/05/08 07:43:26;;;;;;;3.28;1.50;;;17.50;36.80;;;;;;5093038;28;20052;-68
2021/05/08 07:45:51;;;;;;;4.38;1.98;;;17.60;36.80;;;;;;5093023;28;20059;-68
2021/05/08 07:48:17;;;;;;;5.15;1.52;;;17.50;36.80;;;;;;5093258;28;20028;-68
2021/05/08 07:50:43;;;;;;;3.30;1.42;;;17.50;36.80;;;;;;5093123;28;20094;-68
2021/05/08 07:53:09;;;;;;;3.33;1.60;;;17.50;36.80;;;;;;5091936;28;20028;-68
2021/05/08 07:55:35;;;;;;;4.60;1.67;;;17.60;36.80;;;;;;5096809;28;20105;-68
2021/05/08 07:58:05;;;;;;;3.25;1.42;;;17.60;36.80;;;;;;5096505;28;20097;-68
2021/05/08 08:00:31;;;;;;;5.40;1.85;;;17.60;36.80;;;;;;5096569;28;20467;-68
2021/05/08 08:02:57;;;;;;;3.35;1.60;;;17.60;36.80;;;;;;5096855;28;20024;-68
2021/05/08 08:05:22;;;;;;;3.97;1.42;;;17.60;36.80;;;;;;5095097;28;20505;-68
2021/05/08 08:07:48;;;;;;;4.30;1.98;;;17.60;36.80;;;;;;5096197;28;20491;-68
2021/05/08 08:10:14;;;;;;;3.25;1.38;;;17.60;36.80;;;;;;5096359;28;20121;-68
2021/05/08 08:12:40;;;;;;;3.67;1.67;;;17.60;36.70;;;;;;5096291;28;20028;-68
2021/05/08 08:15:08;;;;;;;3.05;1.30;;;17.60;36.80;;;;;;5096228;28;20085;-68
2021/05/08 08:17:35;;;;;;;3.70;1.60;;;17.60;36.70;;;;;;5095951;28;20039;-69
2021/05/08 08:20:05;;;;;;;2.92;1.33;;;17.60;36.70;;;;;;5094768;28;20028;-68
2021/05/08 08:22:30;;;;;;;3.17;1.55;;;17.60;36.70;;;;;;5096066;28;20030;-68
2021/05/08 08:24:56;;;;;;;3.13;1.20;;;17.60;36.70;;;;;;5095896;28;20498;-68
2021/05/08 08:27:22;;;;;;;2.58;1.30;;;17.70;36.70;;;;;;5096062;28;20391;-68
2021/05/08 08:29:47;;;;;;;4.80;1.70;;;17.70;36.60;;;;;;5095901;28;20028;-68
2021/05/08 08:32:13;;;;;;;4.82;1.77;;;17.70;36.60;;;;;;5095822;28;20035;-68
2021/05/08 08:34:38;;;;;;;3.75;1.50;;;17.70;36.60;;;;;;5095922;28;20028;-69
2021/05/08 08:37:04;;;;;;;2.75;1.45;;;17.70;36.60;;;;;;5095536;28;20448;-68
2021/05/08 08:39:31;;;;;;;3.35;1.55;;;17.70;36.60;;;;;;5096792;28;20036;-69
2021/05/08 08:41:57;;;;;;;2.60;1.40;;;17.70;36.60;;;;;;5097924;28;20023;-69
2021/05/08 08:44:22;;;;;;;4.45;1.65;;;17.70;36.60;;;;;;5098381;28;20046;-69
2021/05/08 08:46:48;;;;;;;3.38;1.33;;;17.70;36.60;;;;;;5097836;28;20031;-69
2021/05/08 08:49:15;;;;;;;4.18;1.88;;;17.70;36.70;;;;;;5095819;28;20161;-66
2021/05/08 08:51:42;;;;;;;3.08;1.40;;;17.70;36.70;;;;;;5095406;28;20024;-68
2021/05/08 08:54:08;;;;;;;3.83;1.58;;;17.70;36.60;;;;;;5095593;28;20028;-69
2021/05/08 08:56:43;;;;;;;3.20;1.58;;;17.70;36.70;;;;;;5095795;28;20376;-68
2021/05/08 08:59:25;;;;;;;3.67;1.38;;;17.70;36.60;;;;;;5095432;28;20039;-68
2021/05/08 09:01:51;;;;;;;4.28;1.73;;;17.70;36.70;;;;;;5095368;28;20024;-67
2021/05/08 09:04:17;;;;;;;4.75;1.70;;;17.70;36.70;;;;;;5094929;28;20028;-68
2021/05/08 09:06:45;;;;;;;4.15;1.10;;;17.70;36.70;;;;;;5094685;28;20024;-68
2021/05/08 09:09:12;;;;;;;3.85;1.40;;;17.70;36.70;;;;;;5095443;28;20036;-68
2021/05/08 09:11:52;;;;;;;3.97;1.38;;;17.70;36.70;;;;;;5102475;28;20081;-69
2021/05/08 09:14:35;;;;;;;2.97;1.42;;;17.70;36.70;;;;;;5104691;28;20090;-71
2021/05/08 09:17:07;;;;;;;3.88;1.50;;;17.70;36.60;;;;;;5105741;28;20054;-69
2021/05/08 09:19:38;;;;;;;2.38;1.20;;;17.70;36.60;;;;;;5106245;28;20450;-71
2021/05/08 09:22:22;;;;;;;3.85;1.60;;;17.70;36.60;;;;;;5104749;28;20030;-68
2021/05/08 09:24:55;;;;;;;3.38;1.23;;;17.70;36.60;;;;;;5104603;28;20068;-68
2021/05/08 09:27:37;;;;;;;4.32;1.70;;;17.70;36.60;;;;;;5102113;28;20032;-69
2021/05/08 09:30:09;;;;;;;3.47;1.33;;;17.70;36.60;;;;;;5097031;28;20093;-67
2021/05/08 09:32:39;;;;;;;3.22;1.55;;;17.70;36.60;;;;;;5095562;28;20024;-68
2021/05/08 09:35:15;;;;;;;3.63;1.40;;;17.70;36.60;;;;;;5095562;28;20028;-67
2021/05/08 09:37:40;;;;;;;3.20;1.33;;;17.80;36.60;;;;;;5094373;28;20030;-67
2021/05/08 09:40:17;;;;;;;4.22;1.45;;;17.70;36.50;;;;;;5093966;28;20016;-67
2021/05/08 09:42:51;;;;;;;2.05;1.13;;;17.80;36.60;;;;;;5093920;28;20055;-67
2021/05/08 09:45:17;;;;;;;4.28;1.67;;;17.70;36.60;;;;;;5093871;28;20020;-67
2021/05/08 09:47:44;;;;;;;2.67;1.25;;;17.80;36.50;;;;;;5093586;28;20383;-67
2021/05/08 09:50:10;;;;;;;2.60;1.30;;;17.80;36.50;;;;;;5094397;28;20090;-67
2021/05/08 09:52:46;;;;;;;2.97;1.17;;;17.80;36.50;;;;;;5093715;28;20024;-68
2021/05/08 09:55:16;;;;;;;5.15;1.70;;;17.80;36.50;;;;;;5092132;28;20056;-67
2021/05/08 09:58:05;;;;;;;2.67;1.00;;;17.80;36.50;;;;;;5094137;28;20111;-68
2021/05/08 10:00:40;;;;;;;2.28;1.10;;;17.80;36.50;;;;;;5094762;28;20043;-68
2021/05/08 10:03:13;;;;;;;3.88;1.50;;;17.90;36.50;;;;;;5095408;28;20031;-66
2021/05/08 10:05:57;;;;;;;2.70;1.25;;;17.80;36.50;;;;;;5094631;28;20040;-67
2021/05/08 10:08:23;;;;;;;2.13;1.02;;;17.90;36.40;;;;;;5100287;28;20046;-68
2021/05/08 10:10:49;;;;;;;3.92;1.52;;;17.90;36.50;;;;;;5094994;28;20028;-67
2021/05/08 10:13:15;;;;;;;3.22;1.40;;;17.90;36.40;;;;;;5093984;28;20027;-67
2021/05/08 10:15:41;;;;;;;3.28;1.30;;;17.90;36.40;;;;;;5094432;28;20032;-67
2021/05/08 10:18:13;;;;;;;3.15;1.17;;;17.90;36.40;;;;;;5094136;28;20024;-67
2021/05/08 10:20:40;;;;;;;3.75;1.88;;;17.90;36.40;;;;;;5094994;28;20070;-67
2021/05/08 10:23:12;;;;;;;2.67;1.02;;;17.90;36.40;;;;;;5094327;28;20429;-67
2021/05/08 10:25:39;;;;;;;3.05;1.30;;;17.90;36.40;;;;;;5093866;28;20070;-67
2021/05/08 10:28:06;;;;;;;3.17;1.27;;;18.00;36.40;;;;;;5093930;28;20031;-68
2021/05/08 10:30:39;;;;;;;3.53;1.38;;;18.00;36.30;;;;;;5094164;28;20039;-67
2021/05/08 10:33:11;;;;;;;4.03;1.52;;;17.90;36.30;;;;;;5093958;28;20024;-67
2021/05/08 10:35:47;;;;;;;3.53;1.42;;;18.00;36.40;;;;;;5093479;28;20098;-69
2021/05/08 10:38:34;;;;;;;2.53;1.10;;;18.00;36.30;;;;;;5094191;28;20020;-68
2021/05/08 10:41:03;;;;;;;3.42;1.38;;;18.00;36.30;;;;;;5093711;28;20495;-69
2021/05/08 10:43:53;;;;;;;2.58;1.35;;;18.00;36.30;;;;;;5093405;28;20478;-67
2021/05/08 10:46:21;;;;;;;3.20;1.40;;;18.00;36.40;;;;;;5093663;28;20020;-67
2021/05/08 10:49:17;;;;;;;2.88;1.30;;;18.00;36.30;;;;;;5093556;28;20491;-68
2021/05/08 10:51:55;;;;;;;3.60;1.30;;;18.00;36.30;;;;;;5093135;28;20070;-68
2021/05/08 10:54:39;;;;;;;2.42;1.10;;;18.00;36.40;;;;;;5093231;28;20380;-67
2021/05/08 10:57:15;;;;;;;2.92;1.20;;;18.00;36.30;;;;;;5092261;28;20036;-68
2021/05/08 10:59:59;;;;;;;2.97;1.17;;;18.00;36.30;;;;;;5093192;28;20020;-68
2021/05/08 11:02:41;;;;;;;3.72;1.38;;;18.00;36.30;;;;;;5091961;28;20533;-68
2021/05/08 11:05:25;;;;;;;3.30;1.33;;;18.00;36.30;;;;;;5093543;28;20017;-68
2021/05/08 11:07:51;;;;;;;2.55;1.27;;;18.00;36.30;;;;;;5092977;28;20387;-68
2021/05/08 11:10:35;;;;;;;2.45;1.23;;;18.00;36.30;;;;;;5092002;28;20028;-68
2021/05/08 11:13:08;;;;;;;3.03;1.20;;;18.00;36.30;;;;;;5093268;28;20028;-68
2021/05/08 11:15:52;;;;;;;2.17;0.97;;;18.00;36.30;;;;;;5093543;28;20036;-69
2021/05/08 11:18:33;;;;;;;3.60;1.30;;;18.00;36.40;;;;;;5092972;28;20095;-68
2021/05/08 11:20:59;;;;;;;2.17;0.95;;;18.00;36.30;;;;;;5093240;28;20421;-68
2021/05/08 11:23:25;;;;;;;2.90;1.35;;;18.00;36.30;;;;;;5092917;28;20056;-68
2021/05/08 11:25:51;;;;;;;3.20;1.20;;;18.00;36.30;;;;;;5093131;28;20035;-68
2021/05/08 11:28:17;;;;;;;1.95;0.98;;;18.00;36.30;;;;;;5094158;28;20025;-67
2021/05/08 11:30:52;;;;;;;2.45;1.20;;;18.00;36.30;;;;;;5097448;28;20425;-68
2021/05/08 11:33:22;;;;;;;2.33;1.08;;;18.00;36.30;;;;;;5095685;28;20051;-68
2021/05/08 11:36:04;;;;;;;2.38;0.95;;;18.00;36.30;;;;;;5096778;28;20062;-68
2021/05/08 11:38:30;;;;;;;2.70;1.45;;;18.00;36.30;;;;;;5097592;28;20028;-68
2021/05/08 11:40:56;;;;;;;2.40;1.20;;;18.00;36.30;;;;;;5097327;28;20032;-68
2021/05/08 11:43:27;;;;;;;3.85;1.30;;;18.00;36.30;;;;;;5096866;28;20044;-68
2021/05/08 11:45:54;;;;;;;3.30;1.35;;;18.00;36.30;;;;;;5096647;28;20020;-68
2021/05/08 11:48:19;;;;;;;3.70;1.13;;;18.00;36.30;;;;;;5097163;28;20108;-68
2021/05/08 11:50:49;;;;;;;2.80;1.10;;;18.00;36.30;;;;;;5097507;28;20060;-68
2021/05/08 11:53:19;;;;;;;2.55;1.20;;;18.00;36.30;;;;;;5098732;28;20032;-68
2021/05/08 11:55:46;;;;;;;2.60;1.08;;;18.00;36.20;;;;;;5097398;28;20123;-68
2021/05/08 11:58:23;;;;;;;2.30;1.02;;;18.00;36.30;;;;;;5097042;28;20032;-67
2021/05/08 12:00:48;;;;;;;3.47;1.40;;;18.00;36.30;;;;;;5095616;28;20047;-67
2021/05/08 12:03:15;;;;;;;2.22;1.13;;;18.00;36.20;;;;;;5096785;28;20020;-68
2021/05/08 12:05:46;;;;;;;4.15;1.38;;;18.10;36.30;;;;;;5095306;28;20032;-67
2021/05/08 12:08:14;;;;;;;3.13;0.90;;;18.10;36.30;;;;;;5099516;28;20479;-68
2021/05/08 12:10:42;;;;;;;2.58;1.48;;;18.10;36.30;;;;;;5100783;28;20036;-68
2021/05/08 12:13:08;;;;;;;2.00;0.90;;;18.10;36.30;;;;;;5098131;28;20062;-68
2021/05/08 12:15:51;;;;;;;2.45;1.20;;;18.10;36.30;;;;;;5096911;28;20046;-68
2021/05/08 12:18:19;;;;;;;2.00;1.10;;;18.00;36.30;;;;;;5096875;28;20111;-68
2021/05/08 12:20:50;;;;;;;2.38;1.20;;;18.00;36.30;;;;;;5097134;28;20476;-68
2021/05/08 12:23:21;;;;;;;4.75;1.40;;;18.00;36.30;;;;;;5101781;28;20365;-68
2021/05/08 12:26:05;;;;;;;2.33;1.13;;;18.10;36.30;;;;;;5106743;28;20146;-68
2021/05/08 12:28:31;;;;;;;2.70;1.10;;;18.00;36.30;;;;;;5099546;28;20032;-67
2021/05/08 12:30:57;;;;;;;3.33;1.17;;;18.10;36.30;;;;;;5096477;28;20020;-67
2021/05/08 12:33:25;;;;;;;2.63;0.93;;;18.10;36.40;;;;;;5096659;28;20032;-67
2021/05/08 12:35:52;;;;;;;1.98;1.02;;;18.10;36.30;;;;;;5096543;28;20032;-68
2021/05/08 12:38:21;;;;;;;2.95;0.95;;;18.00;36.30;;;;;;5096093;28;20031;-68
2021/05/08 12:40:48;;;;;;;5.00;1.30;;;18.00;36.40;;;;;;5094355;28;20570;-67
2021/05/08 12:43:24;;;;;;;2.30;0.90;;;18.00;36.40;;;;;;5096110;28;20024;-66
2021/05/08 12:46:02;;;;;;;2.65;1.02;;;18.00;36.40;;;;;;5095930;28;20024;-67
2021/05/08 12:48:43;;;;;;;3.20;1.20;;;18.00;36.40;;;;;;5094521;28;20421;-69
2021/05/08 12:51:35;;;;;;;1.95;1.00;;;18.00;36.40;;;;;;5096114;28;20034;-67